Time;durP1;ratioP1;P1;durP2;ratioP2;P2;SDS_P1;SDS_P2;PMS_P1;PMS_P2;Temp;Humidity;BMP_temperature;BMP_pressure;BME280_temperature;BME280_humidity;BME280_pressure;Samples;Min_cycle;Max_cycle;Signal;HPM_P1;HPM_P2
2024/02/27 00:02:56;;;;;;;16.07;7.77;;;;;;;9.04;61.71;99274.69;4957418;29;20038;-96
2024/02/27 00:05:40;;;;;;;13.95;6.47;;;;;;;9.22;61.53;99306.50;4885759;29;20029;-96
2024/02/27 00:12:31;;;;;;;13.07;6.65;;;;;;;8.90;61.64;99277.84;4900499;29;20044;-96
2024/02/27 00:15:39;;;;;;;12.98;6.57;;;;;;;9.01;61.55;99319.00;4883381;29;20036;-96
2024/02/27 00:21:34;;;;;;;14.13;6.28;;;;;;;8.96;61.80;99321.63;4961520;28;20122;-96
2024/02/27 00:24:33;;;;;;;13.43;6.40;;;;;;;9.01;61.27;99319.00;4927615;28;20035;-96
2024/02/27 00:31:11;;;;;;;12.90;6.35;;;;;;;8.76;61.82;99324.19;5199316;23;20064;31
2024/02/27 01:05:47;;;;;;;13.00;5.85;;;;;;;8.35;62.72;99332.69;5132439;22;20639;-96
2024/02/27 01:08:29;;;;;;;9.88;5.93;;;;;;;8.39;62.76;99320.41;4962520;28;20057;-96
2024/02/27 01:36:22;;;;;;;11.90;5.43;;;;;;;7.61;64.81;99309.94;5013828;28;20057;-96
2024/02/27 01:59:31;;;;;;;11.32;4.97;;;;;;;7.03;65.63;99320.19;5012526;28;20051;-96
2024/02/27 02:08:27;;;;;;;10.48;4.53;;;;;;;6.88;66.37;99330.69;5056661;23;20019;-96
2024/02/27 02:19:10;;;;;;;11.50;6.03;;;;;;;6.43;67.53;99331.56;5006118;28;20055;-96
2024/02/27 02:33:45;;;;;;;9.02;5.28;;;;;;;6.82;66.74;99342.38;4996175;28;20037;-96
2024/02/27 02:36:51;;;;;;;;;;;;;;;;;;;;;
2024/02/27 02:40:01;;;;;;;;;;;;;;;;;;;;;
2024/02/27 02:43:34;;;;;;;12.07;6.40;;;;;;;6.45;67.43;99338.31;4957368;29;20107;-96
2024/02/27 02:46:22;;;;;;;11.13;6.22;;;;;;;6.54;68.40;99373.50;4927641;28;20043;-96
2024/02/27 02:49:47;;;;;;;15.80;7.38;;;;;;;6.43;67.92;99377.88;4955657;29;20020;-96
2024/02/27 02:52:44;;;;;;;14.20;7.40;;;;;;;6.38;68.62;99379.63;4925639;29;20096;-96
2024/02/27 02:55:42;;;;;;;10.80;7.00;;;;;;;6.30;68.28;99370.13;4854499;29;20024;-96
2024/02/27 02:58:19;;;;;;;11.27;6.25;;;;;;;6.16;68.72;99358.91;4903007;29;20045;-96
2024/02/27 03:01:27;;;;;;;20.48;6.70;;;;;;;5.74;68.96;99347.69;4916972;29;20028;-96
2024/02/27 03:04:18;;;;;;;16.63;8.30;;;;;;;5.69;69.74;99364.41;4967246;28;20067;-96
2024/02/27 03:07:25;;;;;;;16.65;8.57;;;;;;;5.66;70.00;99348.84;4983134;28;20042;-96
2024/02/27 03:41:21;;;;;;;15.55;8.95;;;;;;;5.95;68.97;99383.66;4982322;28;20046;-96
2024/02/27 03:43:47;;;;;;;23.42;9.27;;;;;;;5.65;69.49;99382.78;4946777;28;20042;-96
2024/02/27 03:46:12;;;;;;;16.60;9.05;;;;;;;5.71;68.74;99402.41;4945007;28;20454;-95
2024/02/27 03:48:38;;;;;;;20.83;9.80;;;;;;;5.53;69.38;99384.66;4945834;28;20046;-95
2024/02/27 03:51:04;;;;;;;19.00;9.43;;;;;;;5.70;69.44;99410.63;4944896;28;20047;-95
2024/02/27 03:53:33;;;;;;;24.25;11.25;;;;;;;5.48;70.25;99389.91;4945473;28;20500;-94
2024/02/27 03:55:59;;;;;;;23.10;10.32;;;;;;;5.57;70.02;99412.50;4929022;28;20030;-95
2024/02/27 03:58:28;;;;;;;21.90;10.48;;;;;;;5.60;69.46;99401.38;4945121;28;20022;-95
2024/02/27 04:00:54;;;;;;;19.60;9.55;;;;;;;5.69;69.46;99406.34;4945220;28;20054;-94
2024/02/27 04:03:19;;;;;;;30.15;11.30;;;;;;;5.63;69.39;99406.25;4945808;28;20015;-95
2024/02/27 04:05:46;;;;;;;22.95;11.60;;;;;;;5.62;69.41;99406.47;4944553;28;20026;-95
2024/02/27 04:08:12;;;;;;;21.50;10.68;;;;;;;5.65;70.17;99411.34;4945819;28;20089;-94
2024/02/27 04:10:37;;;;;;;20.15;11.07;;;;;;;5.56;70.18;99410.91;4945144;28;20485;-95
2024/02/27 04:13:03;;;;;;;22.90;11.95;;;;;;;5.58;69.85;99407.97;4945975;28;20106;-95
2024/02/27 04:15:29;;;;;;;19.60;11.55;;;;;;;5.61;69.77;99413.66;4944142;28;20102;-95
2024/02/27 04:17:55;;;;;;;18.98;11.50;;;;;;;5.55;70.71;99397.78;4944781;28;20071;-95
2024/02/27 04:20:21;;;;;;;25.23;12.15;;;;;;;5.67;70.33;99414.59;4929136;28;20030;-96
2024/02/27 04:22:47;;;;;;;22.02;11.65;;;;;;;5.61;70.00;99397.66;4930014;28;20030;-94
2024/02/27 04:25:13;;;;;;;24.55;12.25;;;;;;;5.61;70.23;99394.16;4944513;28;20077;-95
2024/02/27 04:27:42;;;;;;;21.88;12.38;;;;;;;5.58;70.42;99398.13;4954779;28;20032;-95
2024/02/27 04:30:08;;;;;;;30.92;12.95;;;;;;;5.58;70.39;99410.66;4964357;28;20026;-95
2024/02/27 04:32:34;;;;;;;28.30;13.18;;;;;;;5.62;70.26;99423.31;4960909;28;20404;-95
2024/02/27 04:35:00;;;;;;;25.75;12.70;;;;;;;5.65;70.63;99432.72;4939420;29;20510;-93
2024/02/27 04:37:25;;;;;;;24.52;13.18;;;;;;;5.55;69.97;99417.28;4943082;28;20030;-95
2024/02/27 04:46:05;;;;;;;29.10;11.80;;;;;;;5.54;70.27;99436.19;5032919;28;20237;-96
2024/02/27 04:48:31;;;;;;;23.08;11.73;;;;;;;5.50;70.63;99435.03;4992695;28;20145;-96
2024/02/27 05:00:34;;;;;;;19.33;9.40;;;;;;;5.61;70.19;99451.06;2830025;23;20314;31
2024/02/27 05:03:01;;;;;;;17.50;10.02;;;;;;;5.52;69.45;99441.81;4920687;29;20048;-95
2024/02/27 05:05:28;;;;;;;27.85;10.98;;;;;;;5.46;69.43;99434.72;4891859;29;20036;-96
2024/02/27 05:07:54;;;;;;;30.48;11.93;;;;;;;5.45;69.87;99441.09;4922323;29;20042;-96
2024/02/27 05:10:20;;;;;;;24.23;11.75;;;;;;;5.44;69.17;99440.28;4903466;29;20035;-95
2024/02/27 05:12:48;;;;;;;21.30;10.52;;;;;;;5.39;69.84;99456.19;4878760;29;20028;-96
2024/02/27 05:15:14;;;;;;;35.20;12.10;;;;;;;5.43;69.19;99444.00;4915938;29;20035;-96
2024/02/27 05:17:43;;;;;;;29.23;11.27;;;;;;;5.50;69.62;99449.22;4899074;29;20051;-95
2024/02/27 05:20:12;;;;;;;25.58;11.35;;;;;;;5.60;68.87;99460.13;4911478;29;20028;-94
2024/02/27 05:22:43;;;;;;;26.40;11.80;;;;;;;5.66;69.16;99451.19;4903773;29;20051;-95
2024/02/27 05:49:01;;;;;;;27.63;11.75;;;;;;;5.82;68.06;99502.28;5042407;28;20046;-95
2024/02/27 05:51:27;;;;;;;31.58;12.38;;;;;;;5.73;68.33;99499.16;4996300;28;20106;-94
2024/02/27 05:54:05;;;;;;;22.17;11.35;;;;;;;5.83;67.88;99507.41;4982837;28;20061;-96
2024/02/27 05:56:33;;;;;;;24.80;10.93;;;;;;;5.78;67.31;99504.59;4975367;28;20034;-96
2024/02/27 05:58:59;;;;;;;28.40;10.88;;;;;;;5.72;67.57;99523.41;4986675;28;20032;-95
2024/02/27 06:01:48;;;;;;;34.25;13.32;;;;;;;5.59;68.07;99508.44;5011449;28;20033;-96
2024/02/27 06:04:14;;;;;;;27.00;14.57;;;;;;;5.60;68.72;99516.22;5028264;28;20044;-96
2024/02/27 06:06:39;;;;;;;26.70;11.63;;;;;;;5.55;68.55;99521.44;5008018;28;20429;-96
2024/02/27 06:09:07;;;;;;;30.35;18.13;;;;;;;5.55;68.38;99515.28;5007203;28;20487;-96
2024/02/27 06:11:33;;;;;;;50.85;23.60;;;;;;;5.83;68.26;99527.94;5004978;28;20021;-96
2024/02/27 06:14:02;;;;;;;49.20;23.70;;;;;;;5.76;68.38;99532.59;4987960;28;20040;-96
2024/02/27 06:16:34;;;;;;;23.80;12.63;;;;;;;5.77;68.32;99535.03;4981706;28;20116;-96
2024/02/27 06:19:05;;;;;;;25.27;11.57;;;;;;;5.92;67.98;99541.78;4999165;28;20113;-95
2024/02/27 06:24:44;;;;;;;21.50;11.25;;;;;;;6.30;66.99;99551.16;5286808;23;20041;-96
2024/02/27 06:27:13;;;;;;;25.92;13.30;;;;;;;6.22;66.46;99525.59;5010335;28;20030;-96
2024/02/27 06:35:42;;;;;;;71.22;40.33;;;;;;;6.50;65.45;99548.91;5052308;23;20054;-97
2024/02/27 06:42:14;;;;;;;29.17;15.25;;;;;;;6.37;66.42;99533.09;5050802;28;20036;-96
2024/02/27 07:15:38;;;;;;;26.33;11.98;;;;;;;8.01;61.76;99536.69;5019786;28;20046;-92
2024/02/27 07:18:07;;;;;;;20.58;11.25;;;;;;;8.12;60.82;99518.06;4940892;28;20047;-96
2024/02/27 07:20:47;;;;;;;17.35;11.73;;;;;;;8.43;60.10;99532.69;4948007;28;20033;-96
2024/02/27 07:33:33;;;;;;;27.75;12.27;;;;;;;9.20;57.88;99553.09;4988540;28;20047;-96
2024/02/27 07:36:04;;;;;;;20.73;10.82;;;;;;;9.24;57.60;99554.22;4973920;28;20391;-96
2024/02/27 07:38:59;;;;;;;18.48;10.27;;;;;;;9.13;58.35;99543.63;4951718;28;20061;-96
2024/02/27 07:41:42;;;;;;;28.38;14.60;;;;;;;9.48;57.82;99565.44;4999371;28;20033;-96
2024/02/27 07:44:57;;;;;;;25.50;12.80;;;;;;;9.49;57.28;99548.25;4978531;28;20045;-96
2024/02/27 07:47:51;;;;;;;38.78;13.27;;;;;;;9.50;56.87;99547.19;4954054;28;20039;-93
2024/02/27 07:53:27;;;;;;;24.92;11.10;;;;;;;9.79;55.99;99570.22;5092978;23;20070;-95
2024/02/27 07:55:58;;;;;;;28.58;13.00;;;;;;;9.74;56.03;99556.75;5008346;28;20042;-96
2024/02/27 08:05:16;;;;;;;20.73;9.93;;;;;;;10.30;54.55;99582.16;4984589;28;20080;-95
2024/02/27 08:08:16;;;;;;;24.45;9.95;;;;;;;10.54;54.08;99587.09;5023628;28;20033;-96
2024/02/27 08:11:06;;;;;;;21.63;8.77;;;;;;;10.56;53.66;99565.28;5065490;23;20065;-95
2024/02/27 08:36:06;;;;;;;15.20;6.82;;;;;;;11.35;53.03;99560.63;5644220;23;20025;-96
2024/02/27 08:39:11;;;;;;;;;;;;;;;;;;;;;
2024/02/27 09:04:58;;;;;;;11.00;6.25;;;;;;;11.68;53.50;99592.47;5776312;23;20041;31
2024/02/27 10:08:54;;;;;;;6.93;4.93;;;;;;;12.76;47.06;99581.41;5000646;28;20065;-96
2024/02/27 10:11:37;;;;;;;6.82;4.70;;;;;;;12.62;47.77;99564.22;4983635;28;20060;-95
2024/02/27 10:14:04;;;;;;;9.82;4.45;;;;;;;12.65;47.85;99596.06;4970050;28;20042;-96
2024/02/27 10:16:38;;;;;;;8.60;4.75;;;;;;;12.43;48.05;99567.53;4955241;28;20065;-96
2024/02/27 10:19:12;;;;;;;8.68;4.93;;;;;;;12.52;47.97;99579.34;4993217;28;20049;-96
2024/02/27 10:21:58;;;;;;;;;;;;;;;;;;;;;
2024/02/27 11:35:31;;;;;;;12.70;5.57;;;;;;;14.48;43.70;99557.78;4969167;28;20054;-92
2024/02/27 11:38:04;;;;;;;10.88;6.15;;;;;;;14.49;43.45;99551.28;4932245;28;20042;-96
2024/02/27 11:41:04;;;;;;;;;;;;;;;;;;;;;
2024/02/27 11:43:43;;;;;;;9.40;5.80;;;;;;;14.41;43.50;99548.44;4993254;28;20058;-96
2024/02/27 11:46:41;;;;;;;;;;;;;;;;;;;;;
2024/02/27 11:49:49;;;;;;;8.10;5.70;;;;;;;14.62;42.88;99541.69;5000336;28;20189;-95
2024/02/27 11:53:41;;;;;;;10.30;5.85;;;;;;;14.77;43.10;99561.53;4915841;28;20045;-94
2024/02/27 11:59:45;;;;;;;;;;;;;;;;;;;;;
2024/02/27 12:02:53;;;;;;;;;;;;;;;;;;;;;
2024/02/27 12:05:55;;;;;;;14.90;6.80;;;;;;;14.79;42.59;99534.94;4930912;29;20565;-94
2024/02/27 12:08:27;;;;;;;9.35;5.75;;;;;;;15.00;42.65;99559.88;4831416;29;20058;-95
2024/02/27 12:10:58;;;;;;;;;;;;;;;15.04;42.82;99566.31;4850108;29;20037;-96
2024/02/27 12:14:09;;;;;;;12.00;5.97;;;;;;;15.14;42.37;99561.56;4912577;29;19911;-96
2024/02/27 12:20:51;;;;;;;10.63;5.93;;;;;;;15.08;42.41;99540.22;4853014;29;20114;-94
2024/02/27 12:23:45;;;;;;;;;;;;;;;;;;;;;
2024/02/27 12:26:20;;;;;;;10.40;5.85;;;;;;;15.24;42.53;99522.63;4861390;29;20096;-96
2024/02/27 12:32:45;;;;;;;11.40;6.22;;;;;;;15.32;42.45;99532.00;4777564;30;20047;-96
2024/02/27 12:39:36;;;;;;;;;;;;;;;;;;;;;
2024/02/27 12:52:26;;;;;;;8.38;5.75;;;;;;;15.48;42.52;99533.38;4689935;30;20041;-96
2024/02/27 12:54:53;;;;;;;9.45;5.90;;;;;;;15.51;42.36;99538.19;4736586;30;20504;-96
2024/02/27 12:57:28;;;;;;;11.52;6.07;;;;;;;15.59;42.29;99541.34;4822418;29;20057;-96
2024/02/27 13:00:15;;;;;;;10.75;6.70;;;;;;;15.56;42.21;99535.41;4834104;29;20038;-96
2024/02/27 13:03:07;;;;;;;11.90;6.20;;;;;;;15.62;42.29;99532.59;4849988;29;20061;-96
2024/02/27 13:05:53;;;;;;;12.38;6.03;;;;;;;15.87;41.94;99553.88;4885030;29;20054;-94
2024/02/27 13:39:22;;;;;;;9.63;6.05;;;;;;;16.13;41.19;99510.75;5001312;28;20108;-95
2024/02/27 13:56:26;;;;;;;23.00;6.68;;;;;;;16.22;40.91;99496.47;5016199;23;20066;-96
2024/02/27 13:59:08;;;;;;;12.98;6.28;;;;;;;16.36;40.59;99519.00;4967156;28;20043;-96
2024/02/27 14:32:30;;;;;;;9.77;4.32;;;;;;;16.27;40.74;99521.63;2197862;23;20130;-95
2024/02/27 15:02:01;;;;;;;11.38;4.47;;;;;;;16.01;41.25;99513.16;596332;23;20455;-93
2024/02/27 15:17:05;;;;;;;7.35;3.72;;;;;;;15.82;41.03;99513.25;5627689;23;20013;-95
2024/02/27 16:19:35;;;;;;;13.45;6.18;;;;;;;14.65;43.92;99559.25;5167374;23;20081;-95
2024/02/27 16:27:57;;;;;;;13.75;5.97;;;;;;;14.48;44.45;99567.84;4983611;28;20050;-96
2024/02/27 16:55:57;;;;;;;9.40;4.38;;;;;;;13.89;45.57;99599.59;5009730;28;20038;-96
2024/02/27 16:58:38;;;;;;;;;;;;;;;;;;;;;
2024/02/27 17:01:14;;;;;;;8.45;4.45;;;;;;;13.88;45.62;99608.81;4950203;28;20098;-96
2024/02/27 17:03:40;;;;;;;8.82;4.50;;;;;;;13.84;45.56;99614.00;4934686;28;20033;-96
2024/02/27 17:06:07;;;;;;;11.07;5.75;;;;;;;13.84;45.92;99632.94;4931246;28;20030;-96
2024/02/27 17:08:32;;;;;;;20.13;5.07;;;;;;;13.85;45.95;99634.56;4932109;28;20035;-95
2024/02/27 17:10:59;;;;;;;12.15;4.68;;;;;;;13.64;46.64;99625.00;4932720;28;20053;-96
2024/02/27 17:13:25;;;;;;;14.60;4.90;;;;;;;13.58;46.46;99618.00;4932311;28;20098;-95
2024/02/27 17:15:57;;;;;;;11.48;5.13;;;;;;;13.59;46.65;99625.00;4932488;28;20070;-95
2024/02/27 17:18:30;;;;;;;;;;;;;;;13.63;46.70;99645.00;4932198;28;20030;-95
2024/02/27 17:21:05;;;;;;;13.70;4.82;;;;;;;13.48;46.52;99621.56;4963747;28;19968;-96
2024/02/27 17:23:45;;;;;;;;;;;;;;;;;;;;;
2024/02/27 17:26:11;;;;;;;8.93;4.72;;;;;;;13.39;46.93;99623.28;4969792;28;20094;-96
2024/02/27 17:28:40;;;;;;;11.57;5.38;;;;;;;13.39;46.95;99626.78;4956425;28;20082;-96
2024/02/27 17:31:42;;;;;;;11.63;6.15;;;;;;;13.31;47.28;99619.25;4945671;28;20054;-96
2024/02/27 17:34:19;;;;;;;13.10;6.03;;;;;;;13.20;48.13;99626.59;4940722;28;20046;-96
2024/02/27 17:36:48;;;;;;;10.13;5.28;;;;;;;13.24;48.13;99632.25;4964871;28;20034;-95
2024/02/27 17:39:14;;;;;;;20.70;6.38;;;;;;;13.27;48.55;99648.72;4931225;28;20031;-95
2024/02/27 17:41:43;;;;;;;16.05;6.22;;;;;;;13.07;48.76;99627.19;4931019;28;20066;-96
2024/02/27 17:44:08;;;;;;;16.15;6.88;;;;;;;13.13;48.64;99648.50;4946853;28;20031;-91
2024/02/27 17:46:35;;;;;;;21.48;6.30;;;;;;;13.08;48.76;99637.75;4928205;28;20026;-94
2024/02/27 17:49:01;;;;;;;15.10;6.45;;;;;;;13.00;49.20;99629.41;4944128;28;20023;-95
2024/02/27 17:51:26;;;;;;;15.85;7.95;;;;;;;12.93;49.09;99632.44;4927698;28;20023;-95
2024/02/27 17:53:54;;;;;;;23.65;8.70;;;;;;;12.88;49.50;99633.22;4926456;28;20055;-95
2024/02/27 17:56:22;;;;;;;25.92;8.82;;;;;;;12.86;49.92;99651.63;4928093;28;20038;-95
2024/02/27 17:58:55;;;;;;;18.75;8.57;;;;;;;12.76;50.09;99646.25;4927883;28;20038;-95
2024/02/27 18:01:21;;;;;;;17.70;8.00;;;;;;;12.77;50.55;99652.50;4943457;28;20096;-96
2024/02/27 18:03:49;;;;;;;36.38;8.07;;;;;;;12.73;50.96;99661.13;4928102;28;20029;-95
2024/02/27 18:06:14;;;;;;;24.63;8.35;;;;;;;12.61;51.00;99649.03;4927419;28;20026;-95
2024/02/27 18:08:40;;;;;;;24.17;8.25;;;;;;;12.47;51.32;99655.00;4930324;28;20038;-95
2024/02/27 18:11:08;;;;;;;20.00;8.63;;;;;;;12.54;51.37;99665.53;4943368;28;20190;-95
2024/02/27 18:13:34;;;;;;;18.70;8.48;;;;;;;12.34;51.84;99642.88;4928886;28;20023;-95
2024/02/27 18:15:59;;;;;;;15.63;8.40;;;;;;;12.43;51.83;99659.34;4927813;28;20464;-95
2024/02/27 18:18:27;;;;;;;25.95;8.85;;;;;;;12.28;51.70;99649.34;4927301;28;20113;-95
2024/02/27 18:20:53;;;;;;;20.25;8.75;;;;;;;12.26;52.36;99646.13;4929184;28;20089;-96
2024/02/27 18:23:27;;;;;;;19.50;9.68;;;;;;;12.30;52.15;99657.19;4946836;28;20043;-95
2024/02/27 18:25:55;;;;;;;19.42;8.82;;;;;;;12.19;52.52;99647.50;4935461;28;20023;-95
2024/02/27 18:28:24;;;;;;;29.10;10.05;;;;;;;12.16;52.95;99651.56;4947267;28;20027;-95
2024/02/27 18:30:54;;;;;;;24.63;7.80;;;;;;;12.11;53.01;99665.03;4947874;28;20038;-96
2024/02/27 18:33:22;;;;;;;20.80;8.65;;;;;;;11.93;53.17;99655.59;4932121;28;20027;-95
2024/02/27 18:35:51;;;;;;;20.35;8.95;;;;;;;11.85;53.50;99653.41;4931549;28;20468;-96
2024/02/27 18:38:18;;;;;;;24.77;9.55;;;;;;;11.85;53.45;99645.31;4933045;28;20027;-94
2024/02/27 18:40:44;;;;;;;21.38;7.78;;;;;;;11.90;53.20;99664.25;4930611;28;20026;-96
2024/02/27 18:43:12;;;;;;;15.00;7.28;;;;;;;11.86;53.39;99661.25;4946779;28;20023;-95
2024/02/27 18:45:44;;;;;;;23.17;9.52;;;;;;;11.79;53.46;99651.81;4946460;28;20406;-95
2024/02/27 18:48:10;;;;;;;35.60;18.25;;;;;;;11.64;53.38;99649.91;4932077;28;20073;-96
2024/02/27 18:50:39;;;;;;;29.25;14.13;;;;;;;11.62;53.60;99665.53;4946846;28;20039;-96
2024/02/27 18:53:05;;;;;;;22.02;7.10;;;;;;;11.62;53.64;99662.84;4931938;28;20481;-95
2024/02/27 18:55:31;;;;;;;15.00;8.10;;;;;;;11.52;54.30;99656.38;4946922;28;20059;-96
2024/02/27 18:57:57;;;;;;;14.85;7.25;;;;;;;11.52;54.19;99667.16;4930170;28;20029;-96
2024/02/27 19:00:22;;;;;;;21.42;8.00;;;;;;;11.49;54.16;99677.66;4930878;28;20027;-96
2024/02/27 19:02:49;;;;;;;14.93;7.72;;;;;;;11.42;54.20;99679.81;4931201;28;20111;-95
2024/02/27 19:05:14;;;;;;;12.63;7.05;;;;;;;11.42;54.32;99679.81;4946570;28;20476;-95
2024/02/27 19:07:40;;;;;;;14.65;6.30;;;;;;;11.31;54.02;99671.69;4931145;28;20110;-96
2024/02/27 19:10:07;;;;;;;16.10;6.78;;;;;;;11.29;54.28;99690.03;4931843;28;20054;-95
2024/02/27 19:12:32;;;;;;;14.27;6.32;;;;;;;11.20;54.78;99680.00;4931173;28;20029;-95
2024/02/27 19:14:58;;;;;;;15.05;7.18;;;;;;;11.22;54.40;99688.63;4929976;28;20035;-96
2024/02/27 19:17:28;;;;;;;16.25;6.70;;;;;;;11.13;54.58;99675.69;4930924;28;20204;-95
2024/02/27 19:19:54;;;;;;;20.35;7.25;;;;;;;11.25;55.11;99696.22;4965029;28;20030;-94
2024/02/27 19:22:22;;;;;;;14.93;6.47;;;;;;;11.16;55.12;99685.13;4959806;28;20108;-95
2024/02/27 19:24:48;;;;;;;13.77;7.70;;;;;;;11.18;55.32;99696.44;4949352;28;20519;-96
2024/02/27 19:27:14;;;;;;;18.40;7.45;;;;;;;11.07;55.32;99692.09;4965603;28;20026;-96
2024/02/27 19:29:40;;;;;;;25.20;8.93;;;;;;;11.12;56.05;99716.34;4966572;28;20054;-95
2024/02/27 19:32:16;;;;;;;21.35;8.98;;;;;;;10.93;56.46;99705.22;4963660;28;20025;-96
2024/02/27 19:34:50;;;;;;;24.38;8.50;;;;;;;10.83;56.65;99699.78;4951410;28;20057;-95
2024/02/27 19:37:17;;;;;;;23.88;9.32;;;;;;;10.83;56.75;99705.19;4968837;28;20473;-96
2024/02/27 19:39:43;;;;;;;23.25;9.35;;;;;;;10.66;56.71;99697.28;4965673;28;20036;-95
2024/02/27 19:42:20;;;;;;;;;;;;;;;;;;;;;
2024/02/27 19:44:46;;;;;;;24.65;10.00;;;;;;;10.51;57.83;99695.31;4968501;28;20038;-96
2024/02/27 19:47:12;;;;;;;30.45;10.25;;;;;;;10.41;57.93;99697.94;4965148;28;20067;-96
2024/02/27 19:49:39;;;;;;;24.08;9.05;;;;;;;10.42;58.03;99707.66;4949065;28;20030;-95
2024/02/27 19:52:05;;;;;;;26.45;10.57;;;;;;;10.39;58.24;99708.97;4965172;28;20038;-94
2024/02/27 19:54:33;;;;;;;18.25;9.05;;;;;;;10.37;58.75;99707.59;4947838;28;20043;-96
2024/02/27 19:57:00;;;;;;;26.33;9.10;;;;;;;10.14;59.03;99704.19;4965968;28;20476;-95
2024/02/27 19:59:28;;;;;;;17.30;8.88;;;;;;;10.07;59.28;99714.34;4965393;28;20030;-95
2024/02/27 20:01:57;;;;;;;20.90;9.02;;;;;;;10.08;58.93;99706.00;4969460;28;20037;-96
2024/02/27 20:04:27;;;;;;;20.90;8.10;;;;;;;10.12;59.22;99722.47;4982356;28;20046;-96
2024/02/27 20:06:58;;;;;;;21.50;9.52;;;;;;;9.94;59.59;99696.78;4952145;28;20030;-96
2024/02/27 20:09:29;;;;;;;25.50;9.25;;;;;;;9.88;59.62;99706.66;4968581;28;20489;-96
2024/02/27 20:12:14;;;;;;;21.20;9.23;;;;;;;9.90;59.84;99706.41;4969358;28;20539;-96
2024/02/27 20:14:43;;;;;;;21.05;9.13;;;;;;;9.97;59.56;99711.59;4967885;28;20058;-96
2024/02/27 20:17:09;;;;;;;21.67;7.35;;;;;;;9.83;59.58;99709.28;4971043;28;20124;-96
2024/02/27 20:38:29;;;;;;;18.35;7.07;;;;;;;9.90;60.30;99736.00;1259849;23;20243;-92
2024/02/27 20:40:55;;;;;;;17.00;7.70;;;;;;;9.75;59.80;99714.31;4918478;29;20578;-96
2024/02/27 20:43:22;;;;;;;16.02;7.00;;;;;;;9.75;59.74;99717.00;4888484;29;20032;-96
2024/02/27 20:45:47;;;;;;;16.00;6.93;;;;;;;9.72;60.07;99718.34;4905242;29;20208;-96
2024/02/27 20:48:14;;;;;;;21.98;7.45;;;;;;;9.77;60.15;99733.72;4903867;29;20035;-96
2024/02/27 20:50:39;;;;;;;19.52;7.60;;;;;;;9.72;60.45;99734.47;4903530;29;20060;-96
2024/02/27 20:53:06;;;;;;;22.67;7.88;;;;;;;9.61;60.28;99716.63;4903354;29;20024;-96
2024/02/27 20:55:32;;;;;;;16.92;7.25;;;;;;;9.61;60.78;99736.25;4904582;29;20028;-96
2024/02/27 20:57:58;;;;;;;19.92;7.88;;;;;;;9.38;60.65;99715.03;4903140;29;20028;-95
2024/02/27 21:00:24;;;;;;;20.88;7.30;;;;;;;9.33;60.72;99713.09;4903565;29;20051;-96
2024/02/27 21:02:52;;;;;;;20.83;8.60;;;;;;;9.43;61.27;99728.53;4887922;29;20024;-96
2024/02/27 21:05:18;;;;;;;17.70;7.85;;;;;;;9.34;60.95;99727.34;4887438;29;20091;-96
2024/02/27 21:07:44;;;;;;;12.70;7.38;;;;;;;9.28;60.59;99705.78;4903235;29;20456;-95
2024/02/27 21:10:13;;;;;;;18.02;6.90;;;;;;;9.34;60.71;99714.72;4887224;29;20032;-96
2024/02/27 21:12:39;;;;;;;17.50;8.90;;;;;;;9.32;60.97;99714.19;4905246;29;20020;-96
2024/02/27 21:15:05;;;;;;;15.52;7.10;;;;;;;9.17;61.59;99708.59;4902979;29;20082;-95
2024/02/27 21:17:31;;;;;;;25.88;7.68;;;;;;;9.13;61.88;99728.97;4904995;29;20054;-95
2024/02/27 21:19:57;;;;;;;16.67;7.30;;;;;;;9.02;61.63;99718.09;4887524;29;20048;-95
2024/02/27 21:22:23;;;;;;;18.58;7.78;;;;;;;9.01;62.07;99721.06;4886743;29;20035;-96
2024/02/27 21:24:48;;;;;;;16.67;7.88;;;;;;;9.07;61.92;99723.56;4902952;29;20491;-96
2024/02/27 21:27:14;;;;;;;17.00;7.43;;;;;;;9.05;61.89;99716.81;4902752;29;20028;-96
2024/02/27 21:29:39;;;;;;;13.70;7.35;;;;;;;9.11;61.67;99718.50;4902263;29;20028;-96
2024/02/27 21:32:05;;;;;;;16.45;7.60;;;;;;;8.96;62.25;99724.47;4902306;29;20032;-96
2024/02/27 21:34:31;;;;;;;20.20;7.15;;;;;;;8.85;63.03;99723.53;4903510;29;20091;-96
2024/02/27 21:36:58;;;;;;;20.00;7.95;;;;;;;8.80;62.53;99714.59;4903374;29;20047;-95
2024/02/27 21:39:24;;;;;;;17.05;8.30;;;;;;;8.68;62.91;99718.19;4911926;29;20052;-95
2024/02/27 21:41:58;;;;;;;15.48;7.15;;;;;;;8.69;63.23;99714.47;4921848;29;20031;-96
2024/02/27 21:44:26;;;;;;;14.48;8.27;;;;;;;8.57;63.54;99726.34;4923160;29;20512;-96
2024/02/27 21:46:51;;;;;;;12.07;7.70;;;;;;;8.52;63.80;99739.69;4921953;29;20557;-96
2024/02/27 21:49:17;;;;;;;19.45;8.63;;;;;;;8.30;63.90;99721.66;4921298;29;20119;-95
2024/02/27 21:51:43;;;;;;;17.40;9.10;;;;;;;8.32;63.59;99721.38;4921433;29;20470;-96
2024/02/27 21:54:11;;;;;;;19.80;9.05;;;;;;;8.35;64.01;99721.72;4921614;29;20023;-96
2024/02/27 21:56:36;;;;;;;18.77;9.15;;;;;;;8.26;64.19;99718.63;4921443;29;20051;-96
2024/02/27 21:59:02;;;;;;;17.25;9.73;;;;;;;8.23;64.80;99727.16;4920596;29;20027;-95
2024/02/27 22:01:27;;;;;;;22.15;10.48;;;;;;;8.16;64.88;99709.63;4921800;29;20031;-96
2024/02/27 22:03:53;;;;;;;22.27;10.20;;;;;;;8.13;64.60;99704.72;4922938;29;20027;-95
2024/02/27 22:06:19;;;;;;;16.83;9.55;;;;;;;8.22;64.86;99714.81;4922889;29;20028;-94
2024/02/27 22:08:46;;;;;;;23.10;9.88;;;;;;;8.28;64.51;99719.19;4922371;29;20019;-95
2024/02/27 22:11:12;;;;;;;23.40;9.50;;;;;;;8.10;65.01;99698.00;4923259;29;20032;-96
2024/02/27 22:13:45;;;;;;;23.70;8.55;;;;;;;8.13;65.02;99718.94;4922722;29;20026;-96
2024/02/27 22:16:14;;;;;;;19.98;9.32;;;;;;;8.13;65.32;99718.94;4923166;29;20087;-96
2024/02/27 22:18:42;;;;;;;21.70;9.93;;;;;;;8.12;65.17;99716.53;4922867;29;20032;-96
2024/02/27 22:21:08;;;;;;;19.98;9.48;;;;;;;8.05;65.41;99719.34;4922409;29;20130;-96
2024/02/27 22:23:33;;;;;;;22.95;9.48;;;;;;;8.11;65.36;99739.84;4921561;29;20080;-96
2024/02/27 22:26:06;;;;;;;22.67;9.88;;;;;;;7.87;65.83;99717.72;4922019;29;20084;-96
2024/02/27 22:28:32;;;;;;;18.75;9.00;;;;;;;7.93;65.72;99737.38;4922250;29;20494;-95
2024/02/27 22:30:58;;;;;;;19.98;9.60;;;;;;;7.98;65.40;99745.53;4921217;29;20039;-96
2024/02/27 22:33:23;;;;;;;18.05;8.85;;;;;;;7.83;65.61;99724.63;4921181;29;20024;-96
2024/02/27 22:35:59;;;;;;;;;;;;;;;;;;;;;
2024/02/27 22:38:25;;;;;;;16.75;8.65;;;;;;;7.90;65.80;99731.44;4921331;29;20044;-95
2024/02/27 22:40:54;;;;;;;26.35;9.60;;;;;;;7.82;66.14;99725.66;4889511;29;20050;-95
2024/02/27 22:43:28;;;;;;;23.08;9.73;;;;;;;7.74;66.15;99732.25;4889961;29;20520;-96
2024/02/27 22:46:09;;;;;;;21.13;9.48;;;;;;;7.67;66.35;99748.44;5117838;23;20479;-96
2024/02/27 22:48:40;;;;;;;16.60;9.40;;;;;;;7.55;66.08;99728.13;4958947;28;20035;-96
2024/02/27 22:51:05;;;;;;;20.52;9.38;;;;;;;7.63;65.99;99738.47;4961070;28;20026;-96
2024/02/27 22:53:33;;;;;;;26.33;10.93;;;;;;;7.45;66.59;99726.91;4943413;28;20134;-96
2024/02/27 22:55:59;;;;;;;23.15;10.10;;;;;;;7.49;66.78;99728.03;4960163;28;20382;-95
2024/02/27 22:58:25;;;;;;;18.52;9.95;;;;;;;7.47;66.88;99737.34;4944287;28;20436;-96
2024/02/27 23:00:52;;;;;;;23.73;11.45;;;;;;;7.40;67.26;99742.84;4942993;28;20090;-96
2024/02/27 23:03:17;;;;;;;22.25;10.93;;;;;;;7.20;67.73;99732.56;4975594;28;20109;-96
2024/02/27 23:05:43;;;;;;;22.25;10.73;;;;;;;7.34;67.26;99751.03;4974765;28;20027;-96
2024/02/27 23:08:09;;;;;;;21.23;10.95;;;;;;;7.13;67.38;99720.34;4977133;28;20019;-95
2024/02/27 23:10:34;;;;;;;22.30;11.40;;;;;;;7.08;67.56;99716.53;4963662;28;20116;-95
2024/02/27 23:13:00;;;;;;;23.70;12.55;;;;;;;7.19;67.81;99751.53;4948311;28;20027;-94
2024/02/27 23:15:25;;;;;;;25.20;12.80;;;;;;;7.15;67.49;99755.75;4947294;28;20034;-95
2024/02/27 23:17:51;;;;;;;26.75;12.43;;;;;;;7.06;67.68;99748.06;4963409;28;20029;-95
2024/02/27 23:20:19;;;;;;;28.17;11.70;;;;;;;7.01;67.81;99736.44;4979138;28;20022;-94
2024/02/27 23:22:44;;;;;;;22.35;11.88;;;;;;;7.05;68.03;99753.66;4979687;28;20433;-95
2024/02/27 23:25:10;;;;;;;21.92;11.55;;;;;;;7.00;67.95;99746.34;4946405;28;20034;-95
2024/02/27 23:27:36;;;;;;;26.83;11.90;;;;;;;7.01;68.11;99752.50;4946660;28;20493;-95
2024/02/27 23:30:03;;;;;;;25.77;11.18;;;;;;;7.02;68.34;99746.91;4962483;28;20018;-95
2024/02/27 23:32:29;;;;;;;20.70;10.95;;;;;;;7.02;68.12;99738.09;4945834;28;20030;-94
2024/02/27 23:34:54;;;;;;;21.58;11.30;;;;;;;7.00;68.11;99735.63;4978156;28;20027;-96